Time;durP1;ratioP1;P1;durP2;ratioP2;P2;SDS_P1;SDS_P2;PMS_P1;PMS_P2;Temp;Humidity;BMP_temperature;BMP_pressure;BME280_temperature;BME280_humidity;BME280_pressure;Samples;Min_cycle;Max_cycle;Signal;HPM_P1;HPM_P2
2021/04/20 00:01:01;;;;;;;19.50;14.55;;;;;;;6.22;100.00;97754.03;5032020;28;20470;-76
2021/04/20 00:03:27;;;;;;;20.13;14.75;;;;;;;6.29;100.00;97757.28;5031562;28;20037;-74
2021/04/20 00:05:52;;;;;;;19.02;13.43;;;;;;;6.24;100.00;97751.84;5031421;28;20075;-74
2021/04/20 00:08:18;;;;;;;20.15;13.82;;;;;;;6.31;100.00;97751.56;5031885;28;20029;-74
2021/04/20 00:10:43;;;;;;;17.80;12.00;;;;;;;6.28;100.00;97747.50;5031078;28;20167;-75
2021/04/20 00:13:09;;;;;;;18.98;14.05;;;;;;;6.21;100.00;97746.13;5030945;28;20037;-74
2021/04/20 00:15:34;;;;;;;16.95;11.90;;;;;;;6.21;100.00;97736.09;5031811;28;20397;-75
2021/04/20 00:18:03;;;;;;;18.98;13.95;;;;;;;6.21;100.00;97733.38;5030329;28;20040;-74
2021/04/20 00:20:29;;;;;;;19.45;14.60;;;;;;;6.20;100.00;97739.88;5031291;28;20432;-74
2021/04/20 00:22:54;;;;;;;20.00;14.63;;;;;;;6.21;100.00;97741.53;5031976;28;20108;-74
2021/04/20 00:25:21;;;;;;;22.65;14.25;;;;;;;6.21;100.00;97741.53;5031703;28;20124;-74
2021/04/20 00:27:46;;;;;;;20.38;13.95;;;;;;;6.11;100.00;97729.88;5031683;28;20474;-75
2021/04/20 00:30:13;;;;;;;25.45;16.40;;;;;;;6.07;100.00;97723.34;5031869;28;20032;-75
2021/04/20 00:32:38;;;;;;;22.05;14.90;;;;;;;6.10;100.00;97726.34;5031514;28;20117;-75
2021/04/20 00:35:05;;;;;;;20.95;13.88;;;;;;;6.12;100.00;97731.47;5030744;28;20569;-74
2021/04/20 00:37:31;;;;;;;18.88;12.90;;;;;;;6.30;100.00;97731.75;5030730;28;20544;-76
2021/04/20 00:39:57;;;;;;;18.27;13.27;;;;;;;6.30;100.00;97729.03;5031759;28;20033;-75
2021/04/20 00:42:22;;;;;;;15.05;10.38;;;;;;;6.36;100.00;97727.94;5031686;28;20549;-74
2021/04/20 00:44:48;;;;;;;13.13;10.18;;;;;;;6.30;100.00;97728.19;5031457;28;20041;-74
2021/04/20 00:47:13;;;;;;;12.93;10.15;;;;;;;6.30;100.00;97722.78;5031081;28;20108;-74
2021/04/20 00:49:39;;;;;;;13.70;9.38;;;;;;;6.31;100.00;97727.94;5029929;28;20029;-73
2021/04/20 00:52:04;;;;;;;13.40;10.25;;;;;;;6.18;100.00;97725.78;5031617;28;20025;-74
2021/04/20 00:54:30;;;;;;;10.55;8.85;;;;;;;6.13;100.00;97723.06;5031347;28;20104;-74
2021/04/20 00:56:55;;;;;;;13.43;10.23;;;;;;;6.07;100.00;97718.75;5044882;28;20031;-74
2021/04/20 00:59:21;;;;;;;13.05;9.45;;;;;;;6.16;100.00;97727.16;5036758;28;20117;-74
2021/04/20 01:01:47;;;;;;;13.40;9.95;;;;;;;6.08;100.00;97723.06;5030478;28;20053;-81
2021/04/20 01:04:14;;;;;;;12.15;9.27;;;;;;;6.17;100.00;97726.06;5033866;28;20033;-74
2021/04/20 01:06:41;;;;;;;12.60;9.32;;;;;;;6.20;100.00;97723.59;5034460;28;20025;-75
2021/04/20 01:09:08;;;;;;;14.93;10.07;;;;;;;6.28;100.00;97725.78;5032135;28;20075;-76
2021/04/20 01:11:37;;;;;;;10.23;8.27;;;;;;;6.27;100.00;97729.56;5022813;28;20481;-75
2021/04/20 01:14:04;;;;;;;11.55;8.93;;;;;;;6.13;100.00;97725.78;5012321;28;20046;-75
2021/04/20 01:16:30;;;;;;;14.00;10.75;;;;;;;6.29;100.00;97721.16;5025607;28;20504;-75
2021/04/20 01:18:56;;;;;;;13.38;10.70;;;;;;;6.26;100.00;97719.81;5032199;28;20116;-75
2021/04/20 01:21:22;;;;;;;13.57;9.43;;;;;;;6.37;100.00;97724.13;5032933;28;20118;-75
2021/04/20 01:24:15;;;;;;;15.00;9.98;;;;;;;6.30;100.00;97725.50;5032124;28;20176;-80
2021/04/20 01:26:44;;;;;;;14.88;11.07;;;;;;;6.28;100.00;97727.69;5032462;28;20033;-75
2021/04/20 01:29:10;;;;;;;15.90;11.68;;;;;;;6.22;100.00;97731.47;5014808;28;20052;-75
2021/04/20 01:31:40;;;;;;;13.75;11.18;;;;;;;6.27;100.00;97728.75;5012797;28;20026;-75
2021/04/20 01:34:06;;;;;;;14.10;10.15;;;;;;;6.17;100.00;97734.22;5011538;28;20453;-75
2021/04/20 01:36:31;;;;;;;13.73;9.25;;;;;;;6.12;100.00;97735.00;5012251;28;20022;-76
2021/04/20 01:38:59;;;;;;;14.63;9.98;;;;;;;6.11;100.00;97736.09;5016956;28;20018;-75
2021/04/20 01:41:26;;;;;;;15.85;11.13;;;;;;;5.95;100.00;97718.19;5034117;28;20128;-77
2021/04/20 01:43:54;;;;;;;16.88;11.38;;;;;;;5.97;100.00;97728.78;5036559;28;20029;-79
2021/04/20 01:46:20;;;;;;;16.48;10.55;;;;;;;5.97;100.00;97728.78;5032655;28;20030;-75
2021/04/20 01:48:47;;;;;;;19.15;12.02;;;;;;;6.02;100.00;97726.88;5030784;28;20057;-75
2021/04/20 01:51:14;;;;;;;19.33;12.63;;;;;;;6.02;100.00;97721.44;5031390;28;20040;-75
2021/04/20 01:53:40;;;;;;;17.98;13.25;;;;;;;6.28;100.00;97725.78;5030906;28;20029;-74
2021/04/20 01:56:08;;;;;;;21.10;13.27;;;;;;;6.25;100.00;97720.91;5030744;28;20091;-76
2021/04/20 01:58:35;;;;;;;19.83;13.23;;;;;;;6.17;100.00;97729.56;5031037;28;20026;-75
2021/04/20 02:01:13;;;;;;;21.88;14.35;;;;;;;6.11;100.00;97719.81;5030527;28;20025;-75
2021/04/20 02:03:39;;;;;;;19.02;11.40;;;;;;;6.22;100.00;97721.44;5034483;28;20082;-76
2021/04/20 02:06:07;;;;;;;16.95;12.15;;;;;;;6.28;100.00;97723.06;5035392;28;20014;-75
2021/04/20 02:08:33;;;;;;;25.58;12.10;;;;;;;6.07;100.00;97723.34;5035085;28;20516;-74
2021/04/20 02:11:04;;;;;;;16.55;12.15;;;;;;;6.10;100.00;97733.66;5034723;28;20409;-76
2021/04/20 02:13:31;;;;;;;20.45;11.93;;;;;;;5.96;100.00;97738.00;5034905;28;20084;-75
2021/04/20 02:15:56;;;;;;;15.65;10.73;;;;;;;5.92;100.00;97729.56;5035327;28;20032;-74
2021/04/20 02:18:25;;;;;;;14.05;10.25;;;;;;;5.85;100.00;97726.31;5035411;28;20390;-78
2021/04/20 02:20:52;;;;;;;18.85;12.65;;;;;;;5.85;100.00;97734.44;5035202;28;20088;-75
2021/04/20 02:23:20;;;;;;;17.70;11.57;;;;;;;5.86;100.00;97733.38;5033191;28;20032;-76
2021/04/20 02:25:47;;;;;;;20.48;11.77;;;;;;;5.67;100.00;97724.91;5033908;28;20030;-75
2021/04/20 02:28:13;;;;;;;16.40;11.45;;;;;;;5.64;100.00;97722.72;5034016;28;20033;-75
2021/04/20 02:30:39;;;;;;;16.15;11.25;;;;;;;5.73;100.00;97721.13;5034100;28;20482;-75
2021/04/20 02:33:04;;;;;;;18.17;12.25;;;;;;;5.68;100.00;97726.56;5034110;28;20032;-81
2021/04/20 02:35:31;;;;;;;19.17;11.07;;;;;;;5.45;100.00;97726.25;5033899;28;20044;-75
2021/04/20 02:37:57;;;;;;;15.18;10.25;;;;;;;5.41;100.00;97720.53;5034176;28;20025;-75
2021/04/20 02:40:25;;;;;;;14.43;10.40;;;;;;;5.36;100.00;97707.78;5034057;28;20394;-75
2021/04/20 02:42:52;;;;;;;17.08;11.32;;;;;;;5.46;100.00;97722.44;5034360;28;20029;-75
2021/04/20 02:45:21;;;;;;;17.98;11.10;;;;;;;5.42;100.00;97718.66;5034532;28;20068;-76
2021/04/20 02:47:46;;;;;;;16.70;10.70;;;;;;;5.44;100.00;97719.19;5032722;28;20486;-74
2021/04/20 02:50:16;;;;;;;17.00;10.02;;;;;;;5.33;100.00;97708.31;5034095;28;20079;-75
2021/04/20 02:52:43;;;;;;;17.35;10.32;;;;;;;5.43;100.00;97720.25;5033843;28;20064;-75
2021/04/20 02:55:10;;;;;;;19.33;10.68;;;;;;;5.46;100.00;97712.41;5033322;28;20032;-75
2021/04/20 02:57:39;;;;;;;17.83;10.95;;;;;;;5.63;100.00;97721.13;5034953;28;20034;-75
2021/04/20 03:00:14;;;;;;;14.80;10.13;;;;;;;5.73;100.00;97717.63;5033549;28;20123;-75
2021/04/20 03:02:42;;;;;;;16.15;11.30;;;;;;;5.68;100.00;97721.13;5030176;28;20038;-77
2021/04/20 03:05:13;;;;;;;19.35;10.35;;;;;;;5.76;100.00;97714.34;5034583;28;20052;-74
2021/04/20 03:07:39;;;;;;;14.15;10.38;;;;;;;5.86;100.00;97719.81;5033366;28;20017;-75
2021/04/20 03:10:05;;;;;;;18.33;11.15;;;;;;;5.68;100.00;97725.72;5032989;28;20405;-78
2021/04/20 03:12:32;;;;;;;16.67;10.52;;;;;;;5.55;100.00;97726.25;5032409;28;20373;-75
2021/04/20 03:15:04;;;;;;;21.92;11.55;;;;;;;5.64;100.00;97724.66;5033555;28;20013;-76
2021/04/20 03:17:30;;;;;;;19.17;11.43;;;;;;;5.49;100.00;97722.72;5033956;28;20029;-76
2021/04/20 03:19:56;;;;;;;20.00;11.65;;;;;;;5.39;100.00;97728.94;5033984;28;20448;-76
2021/04/20 03:22:23;;;;;;;17.02;11.80;;;;;;;5.34;100.00;97720.78;5034767;28;20021;-74
2021/04/20 03:25:02;;;;;;;25.52;13.25;;;;;;;5.40;100.00;97725.16;5034529;28;20029;-74
2021/04/20 03:27:28;;;;;;;20.35;13.32;;;;;;;5.48;100.00;97725.72;5033150;28;20076;-75
2021/04/20 03:29:54;;;;;;;25.02;13.23;;;;;;;5.50;100.00;97723.53;5034823;28;20021;-75
2021/04/20 03:32:20;;;;;;;20.08;11.50;;;;;;;5.40;100.00;97714.31;5035588;28;20600;-75
2021/04/20 03:34:55;;;;;;;19.25;11.50;;;;;;;5.44;100.00;97713.75;5034153;28;20108;-75
2021/04/20 03:37:30;;;;;;;21.20;12.25;;;;;;;5.39;100.00;97728.94;5033194;28;20029;-75
2021/04/20 03:39:59;;;;;;;18.60;11.32;;;;;;;5.52;100.00;97716.75;5033351;28;20083;-75
2021/04/20 03:42:29;;;;;;;16.75;10.23;;;;;;;5.47;100.00;97724.91;5032188;28;20040;-75
2021/04/20 03:45:00;;;;;;;18.85;10.18;;;;;;;5.45;100.00;97720.81;5032601;28;20025;-78
2021/04/20 03:47:41;;;;;;;15.43;10.82;;;;;;;5.31;100.00;97718.63;5032712;28;20032;-75
2021/04/20 03:50:12;;;;;;;13.70;10.50;;;;;;;5.32;100.00;97717.53;5031094;28;20493;-75
2021/04/20 03:52:52;;;;;;;17.23;10.18;;;;;;;5.46;100.00;97725.16;5032901;28;20115;-76
2021/04/20 03:55:21;;;;;;;15.15;9.25;;;;;;;5.35;100.00;97727.03;5032998;28;20029;-75
2021/04/20 03:57:48;;;;;;;15.73;10.02;;;;;;;5.39;100.00;97718.09;5032779;28;20025;-75
2021/04/20 04:00:16;;;;;;;13.60;9.18;;;;;;;5.47;100.00;97724.91;5032854;28;20022;-75
2021/04/20 04:02:45;;;;;;;11.50;8.07;;;;;;;5.33;100.00;97719.16;5032151;28;20033;-75
2021/04/20 04:05:16;;;;;;;13.02;8.90;;;;;;;5.32;100.00;97717.53;5032403;28;20026;-75
2021/04/20 04:07:46;;;;;;;13.93;9.27;;;;;;;5.28;100.00;97723.75;5033459;28;20057;-75
2021/04/20 04:10:13;;;;;;;13.10;8.48;;;;;;;5.33;100.00;97730.00;5033473;28;20041;-75
2021/04/20 04:12:39;;;;;;;11.52;7.72;;;;;;;5.48;100.00;97725.72;5031660;28;20530;-75
2021/04/20 04:15:08;;;;;;;13.30;9.25;;;;;;;5.54;100.00;97733.59;5033174;28;20025;-75
2021/04/20 04:17:36;;;;;;;10.90;7.82;;;;;;;5.45;100.00;97740.59;5031275;28;20052;-75
2021/04/20 04:20:05;;;;;;;12.38;8.38;;;;;;;5.32;100.00;97731.09;5032955;28;20097;-75
2021/04/20 04:22:58;;;;;;;13.65;8.48;;;;;;;5.31;100.00;97732.19;5033335;28;20143;-75
2021/04/20 04:25:31;;;;;;;13.68;9.52;;;;;;;5.37;100.00;97736.53;5032664;28;20123;-76
2021/04/20 04:27:58;;;;;;;14.23;9.13;;;;;;;5.45;100.00;97742.53;5038668;28;20026;-75
2021/04/20 04:30:26;;;;;;;16.33;11.02;;;;;;;5.26;100.00;97734.84;5035046;28;20029;-76
2021/04/20 04:32:53;;;;;;;13.70;9.55;;;;;;;5.26;100.00;97737.56;5037294;28;20056;-81
2021/04/20 04:35:20;;;;;;;12.70;9.05;;;;;;;5.26;100.00;97734.06;5036055;28;20466;-75
2021/04/20 04:37:46;;;;;;;14.20;9.30;;;;;;;5.20;100.00;97735.91;5031615;28;20025;-76
2021/04/20 04:40:12;;;;;;;17.77;10.55;;;;;;;5.07;100.00;97741.88;5030597;28;20079;-77
2021/04/20 04:42:38;;;;;;;12.40;8.57;;;;;;;5.09;100.00;97747.00;5030620;28;20052;-75
2021/04/20 04:45:06;;;;;;;16.08;9.43;;;;;;;5.10;100.00;97741.34;5022556;28;20068;-75
2021/04/20 04:47:36;;;;;;;17.75;11.85;;;;;;;5.21;100.00;97748.41;5027816;28;20549;-78
2021/04/20 04:50:05;;;;;;;18.33;11.35;;;;;;;5.23;100.00;97762.50;5028700;28;20030;-75
2021/04/20 04:52:32;;;;;;;15.50;10.02;;;;;;;5.33;100.00;97748.16;5027814;28;20056;-75
2021/04/20 04:54:58;;;;;;;17.38;9.95;;;;;;;5.39;100.00;97760.66;5029359;28;20017;-75
2021/04/20 04:57:28;;;;;;;15.25;9.30;;;;;;;5.36;100.00;97756.59;5028700;28;20037;-76
2021/04/20 05:00:15;;;;;;;17.75;10.77;;;;;;;5.35;100.00;97752.25;5029510;28;20022;-76
2021/04/20 05:02:42;;;;;;;18.17;10.38;;;;;;;5.32;100.00;97758.22;5029603;28;20029;-76
2021/04/20 05:05:15;;;;;;;14.43;9.45;;;;;;;5.45;100.00;97753.38;5031662;28;20018;-75
2021/04/20 05:07:42;;;;;;;16.42;9.90;;;;;;;5.47;100.00;97765.56;5029912;28;20049;-75
2021/04/20 05:10:13;;;;;;;13.95;9.73;;;;;;;5.55;100.00;97764.22;5030373;28;20024;-75
2021/04/20 05:12:40;;;;;;;15.27;10.02;;;;;;;5.53;100.00;97759.09;5029693;28;20386;-76
2021/04/20 05:15:06;;;;;;;18.67;9.93;;;;;;;5.47;100.00;97762.88;5033297;28;20056;-76
2021/04/20 05:17:32;;;;;;;17.73;9.57;;;;;;;5.34;100.00;97769.59;5030982;28;20025;-73
2021/04/20 05:19:58;;;;;;;17.60;10.32;;;;;;;5.46;100.00;97771.25;5032894;28;20083;-74
2021/04/20 05:22:24;;;;;;;13.25;9.52;;;;;;;5.53;100.00;97771.81;5028313;28;20040;-74
2021/04/20 05:24:49;;;;;;;17.58;10.02;;;;;;;5.54;100.00;97770.75;5026206;28;20026;-76
2021/04/20 05:27:14;;;;;;;15.60;11.38;;;;;;;5.50;100.00;97775.06;5022621;28;20026;-73
2021/04/20 05:29:40;;;;;;;15.38;10.07;;;;;;;5.46;100.00;97772.06;5010782;28;20022;-73
2021/04/20 05:32:07;;;;;;;19.45;11.48;;;;;;;5.52;100.00;97770.19;5024659;28;20030;-74
2021/04/20 05:34:33;;;;;;;20.73;11.95;;;;;;;5.64;100.00;97773.50;5030514;28;20025;-75
2021/04/20 05:36:58;;;;;;;18.00;11.40;;;;;;;5.60;100.00;97769.69;5032092;28;20367;-73
2021/04/20 05:39:24;;;;;;;18.48;13.27;;;;;;;5.57;100.00;97775.63;5034983;28;20041;-74
2021/04/20 05:41:49;;;;;;;19.45;11.27;;;;;;;5.71;100.00;97779.47;5033669;28;20032;-75
2021/04/20 05:44:15;;;;;;;18.38;12.18;;;;;;;5.89;100.00;97781.69;5021084;28;20026;-74
2021/04/20 05:46:46;;;;;;;14.73;10.02;;;;;;;5.82;100.00;97786.53;5031863;28;20360;-71
2021/04/20 05:49:11;;;;;;;13.60;9.75;;;;;;;5.79;100.00;97781.66;5014471;28;20157;-73
2021/04/20 05:51:40;;;;;;;14.25;10.18;;;;;;;5.91;100.00;97790.38;5014788;28;20025;-73
2021/04/20 05:54:06;;;;;;;17.48;11.50;;;;;;;5.77;100.00;97789.22;5014519;28;20068;-74
2021/04/20 05:56:32;;;;;;;16.10;11.55;;;;;;;5.65;100.00;97785.97;5014575;28;20026;-74
2021/04/20 05:58:59;;;;;;;15.57;10.30;;;;;;;5.92;100.00;97781.97;5014347;28;20032;-80
2021/04/20 06:01:26;;;;;;;18.13;11.82;;;;;;;5.87;100.00;97781.16;5014154;28;20072;-74
2021/04/20 06:03:54;;;;;;;21.48;11.07;;;;;;;5.90;100.00;97783.31;5014469;28;20048;-73
2021/04/20 06:06:22;;;;;;;17.85;11.43;;;;;;;5.93;100.00;97778.19;5014290;28;20033;-73
2021/04/20 06:08:51;;;;;;;16.42;11.02;;;;;;;5.95;100.00;97777.91;5014378;28;20026;-74
2021/04/20 06:11:18;;;;;;;16.17;10.70;;;;;;;5.88;100.00;97785.50;5014167;28;20018;-74
2021/04/20 06:13:44;;;;;;;20.67;14.13;;;;;;;6.02;100.00;97781.16;5014043;28;20037;-73
2021/04/20 06:16:10;;;;;;;21.27;12.18;;;;;;;6.25;100.00;97788.78;5014987;28;20026;-74
2021/04/20 06:18:38;;;;;;;23.25;12.80;;;;;;;6.00;100.00;97788.78;5014975;28;20064;-73
2021/04/20 06:21:06;;;;;;;20.10;13.40;;;;;;;6.03;100.00;97781.97;5030473;28;20049;-73
2021/04/20 06:23:33;;;;;;;23.17;14.18;;;;;;;6.03;100.00;97771.94;5034585;28;20025;-73
2021/04/20 06:26:01;;;;;;;24.65;14.85;;;;;;;6.19;100.00;97789.88;5034116;28;20434;-73
2021/04/20 06:28:27;;;;;;;23.90;14.75;;;;;;;6.24;100.00;97783.59;5024954;28;21250;-74
2021/04/20 06:30:57;;;;;;;23.48;15.23;;;;;;;6.31;100.00;97790.41;5029999;28;20121;-74
2021/04/20 06:33:29;;;;;;;23.25;13.73;;;;;;;6.41;100.00;97789.59;5033867;28;20485;-73
2021/04/20 06:35:55;;;;;;;20.27;13.13;;;;;;;6.80;100.00;97787.09;5034517;28;20064;-73
2021/04/20 06:38:21;;;;;;;21.65;13.10;;;;;;;6.91;99.33;97788.69;5033563;28;20481;-74
2021/04/20 06:40:52;;;;;;;23.17;14.77;;;;;;;6.81;99.66;97788.72;5033302;28;20029;-74
2021/04/20 06:43:26;;;;;;;22.90;13.82;;;;;;;6.86;99.15;97786.00;5032306;28;20396;-74
2021/04/20 06:45:54;;;;;;;21.30;13.63;;;;;;;6.91;98.65;97788.69;5033007;28;20030;-74
2021/04/20 06:48:23;;;;;;;23.00;14.27;;;;;;;6.96;98.10;97794.13;5032468;28;20482;-75
2021/04/20 06:50:53;;;;;;;18.20;12.60;;;;;;;6.99;97.99;97791.66;5033059;28;20081;-75
2021/04/20 06:53:24;;;;;;;23.67;13.18;;;;;;;6.83;98.23;97797.41;5034462;28;20029;-75
2021/04/20 06:56:03;;;;;;;28.58;14.48;;;;;;;6.84;98.85;97794.41;5033501;28;20021;-75
2021/04/20 06:58:49;;;;;;;33.35;15.05;;;;;;;7.13;97.04;97797.34;5031787;28;20033;-75
2021/04/20 07:01:54;;;;;;;22.00;14.35;;;;;;;6.89;98.32;97797.13;5032652;28;20030;-75
2021/04/20 07:04:43;;;;;;;21.83;14.05;;;;;;;6.81;98.95;97794.97;5014769;28;20909;-75
2021/04/20 07:07:33;;;;;;;30.80;16.40;;;;;;;6.63;99.68;97790.13;5031719;28;20025;-77
2021/04/20 07:10:12;;;;;;;26.38;15.73;;;;;;;6.70;100.00;97795.28;5024692;28;20033;-75
2021/04/20 07:12:41;;;;;;;20.65;13.82;;;;;;;6.94;98.52;97790.88;5031838;28;20045;-75
2021/04/20 07:15:11;;;;;;;23.42;15.05;;;;;;;7.25;97.11;97795.13;5032761;28;20022;-77
2021/04/20 07:17:36;;;;;;;22.80;14.13;;;;;;;7.47;95.51;97794.75;5023344;28;20030;-73
2021/04/20 07:20:39;;;;;;;19.23;13.82;;;;;;;7.67;92.42;97791.13;5016406;28;20509;-76
2021/04/20 07:23:32;;;;;;;20.20;12.95;;;;;;;8.22;90.05;97788.03;5013370;28;20030;-77
2021/04/20 07:26:06;;;;;;;18.20;12.70;;;;;;;8.36;89.58;97791.78;5012431;28;20068;-75
2021/04/20 07:28:48;;;;;;;18.40;11.68;;;;;;;8.49;88.31;97788.38;5011967;28;20043;-75
2021/04/20 07:31:17;;;;;;;19.58;12.32;;;;;;;8.60;87.53;97787.19;5013085;28;20032;-75
2021/04/20 07:34:15;;;;;;;23.90;14.20;;;;;;;8.88;85.95;97787.47;5030949;28;20052;-75
2021/04/20 07:37:22;;;;;;;21.48;13.07;;;;;;;9.61;82.62;97783.34;5031017;28;20045;-75
2021/04/20 07:39:56;;;;;;;19.23;13.55;;;;;;;9.50;82.25;97787.28;5031509;28;20524;-75
2021/04/20 07:42:31;;;;;;;14.80;11.43;;;;;;;9.69;80.96;97790.88;5032765;28;20495;-75
2021/04/20 07:45:07;;;;;;;19.65;12.23;;;;;;;9.86;79.61;97784.91;5032631;28;20040;-75
2021/04/20 07:47:42;;;;;;;16.92;11.85;;;;;;;9.99;79.33;97788.84;5032666;28;20033;-73
2021/04/20 07:50:22;;;;;;;15.27;11.45;;;;;;;10.36;77.13;97788.00;5032760;28;20116;-74
2021/04/20 07:53:16;;;;;;;16.63;11.70;;;;;;;10.25;77.81;97787.34;5032249;28;20389;-73
2021/04/20 07:55:53;;;;;;;19.20;12.00;;;;;;;11.57;72.11;97788.50;5031902;28;20048;-74
2021/04/20 07:58:21;;;;;;;17.63;12.02;;;;;;;11.20;72.00;97787.59;5032010;28;20021;-74
2021/04/20 08:00:56;;;;;;;14.60;11.02;;;;;;;11.40;71.61;97789.13;5030576;28;20112;-74
2021/04/20 08:03:26;;;;;;;16.15;11.98;;;;;;;10.68;74.48;97788.81;5031982;28;20021;-74
2021/04/20 08:06:31;;;;;;;18.73;12.43;;;;;;;10.43;75.00;97794.72;5030810;28;20385;-74
2021/04/20 08:09:01;;;;;;;17.60;12.05;;;;;;;10.99;73.48;97797.31;5034001;28;20132;-74
2021/04/20 08:11:34;;;;;;;18.60;12.35;;;;;;;12.05;68.94;97802.56;5046717;28;20031;-74
2021/04/20 08:14:08;;;;;;;15.13;11.40;;;;;;;12.57;67.34;97793.63;5044611;28;20192;-75
2021/04/20 08:16:41;;;;;;;22.30;12.35;;;;;;;12.61;66.30;97794.66;5033096;28;20524;-74
2021/04/20 08:19:18;;;;;;;16.23;11.70;;;;;;;11.50;69.81;97797.13;5031761;28;20029;-75
2021/04/20 08:21:50;;;;;;;19.23;11.55;;;;;;;11.68;70.11;97793.44;5031421;28;20053;-74
2021/04/20 08:24:53;;;;;;;17.13;13.68;;;;;;;13.85;62.66;97798.13;5030507;28;20035;-75
2021/04/20 08:27:38;;;;;;;14.90;11.77;;;;;;;15.16;57.32;97793.13;5031381;28;20037;-74
2021/04/20 08:30:15;;;;;;;16.60;11.30;;;;;;;15.59;55.30;97792.97;5031956;28;20029;-75
2021/04/20 08:32:44;;;;;;;17.50;10.32;;;;;;;15.63;53.31;97791.19;5031350;28;20474;-75
2021/04/20 08:35:15;;;;;;;14.45;12.00;;;;;;;15.08;55.14;97783.72;5031423;28;20026;-75
2021/04/20 08:38:14;;;;;;;12.80;10.73;;;;;;;16.34;52.27;97789.25;5031066;28;20033;-74
2021/04/20 08:40:58;;;;;;;13.25;10.77;;;;;;;15.33;53.96;97790.28;5029818;28;20026;-74
2021/04/20 08:43:28;;;;;;;12.65;9.77;;;;;;;15.91;52.43;97793.09;5031193;28;20041;-74
2021/04/20 08:46:15;;;;;;;13.02;9.15;;;;;;;18.00;47.09;97784.03;5029742;28;20024;-74
2021/04/20 08:48:49;;;;;;;15.45;10.63;;;;;;;15.77;52.24;97781.50;5030972;28;20029;-74
2021/04/20 08:51:30;;;;;;;12.20;10.40;;;;;;;16.08;52.24;97773.69;5031087;28;20367;-74
2021/04/20 08:54:18;;;;;;;13.65;11.25;;;;;;;17.04;49.43;97771.75;5031672;28;20025;-74
2021/04/20 08:56:58;;;;;;;12.77;8.88;;;;;;;18.56;45.92;97776.66;5030611;28;20028;-75
2021/04/20 08:59:52;;;;;;;13.93;10.35;;;;;;;17.19;49.47;97773.03;5010865;28;20046;-74
2021/04/20 09:02:24;;;;;;;13.48;10.20;;;;;;;17.31;48.01;97770.28;5022053;28;20034;-75
2021/04/20 09:04:55;;;;;;;12.77;9.45;;;;;;;16.67;50.11;97762.50;5029876;28;20028;-74
2021/04/20 09:07:44;;;;;;;14.18;9.07;;;;;;;17.53;48.37;97773.41;5029889;28;20464;-74
2021/04/20 09:10:21;;;;;;;14.55;9.65;;;;;;;16.83;49.76;97768.19;5031181;28;20032;-75
2021/04/20 09:12:53;;;;;;;13.68;9.23;;;;;;;16.33;51.46;97769.13;5030519;28;20018;-73
2021/04/20 09:15:19;;;;;;;13.60;9.60;;;;;;;17.01;49.43;97767.69;5030513;28;20044;-75
2021/04/20 09:17:50;;;;;;;11.75;9.23;;;;;;;18.39;45.43;97771.38;5030351;28;20026;-74
2021/04/20 09:20:26;;;;;;;11.23;9.45;;;;;;;17.27;48.56;97766.56;5030350;28;20119;-76
2021/04/20 09:23:02;;;;;;;10.57;8.77;;;;;;;18.71;45.69;97762.06;5031241;28;20049;-74
2021/04/20 09:25:39;;;;;;;11.85;9.65;;;;;;;17.57;48.00;97768.03;5030547;28;20041;-74
2021/04/20 09:28:30;;;;;;;12.70;9.80;;;;;;;16.68;49.68;97764.13;5030535;28;20398;-74
2021/04/20 09:31:01;;;;;;;10.82;8.63;;;;;;;18.31;47.21;97761.25;5030968;28;20033;-72
2021/04/20 09:33:37;;;;;;;12.27;8.48;;;;;;;17.20;48.87;97761.59;5029560;28;20097;-74
2021/04/20 09:36:04;;;;;;;10.05;8.70;;;;;;;17.47;47.19;97766.50;5030942;28;20117;-73
2021/04/20 09:38:32;;;;;;;11.13;8.93;;;;;;;19.80;42.50;97764.16;5030856;28;20033;-73
2021/04/20 09:40:58;;;;;;;11.88;8.75;;;;;;;18.68;44.83;97754.44;5030527;28;20037;-75
2021/04/20 09:43:24;;;;;;;10.98;8.43;;;;;;;19.41;42.87;97756.84;5030444;28;20496;-73
2021/04/20 09:45:59;;;;;;;11.55;9.35;;;;;;;20.10;40.78;97751.41;5029223;28;20108;-72
2021/04/20 09:48:37;;;;;;;11.43;8.00;;;;;;;18.48;44.44;97747.91;5029159;28;20374;-73
2021/04/20 09:51:10;;;;;;;9.75;7.53;;;;;;;18.89;43.18;97741.19;5029088;28;20517;-73
2021/04/20 09:53:41;;;;;;;11.00;8.43;;;;;;;17.81;45.01;97748.66;5031007;28;20029;-73
2021/04/20 09:56:11;;;;;;;9.18;7.55;;;;;;;18.66;43.32;97757.59;5030306;28;20436;-73
2021/04/20 09:58:41;;;;;;;9.25;7.40;;;;;;;18.96;42.01;97741.38;5030589;28;20135;-73
2021/04/20 10:01:44;;;;;;;9.45;7.35;;;;;;;19.83;40.50;97746.78;5030218;28;20029;-73
2021/04/20 10:04:13;;;;;;;7.78;6.53;;;;;;;20.26;40.25;97745.81;5030080;28;20041;-73
2021/04/20 10:06:38;;;;;;;9.93;7.55;;;;;;;18.63;42.70;97743.63;5030637;28;20481;-73
2021/04/20 10:09:42;;;;;;;10.15;7.55;;;;;;;19.68;40.43;97753.16;5030615;28;20021;-73
2021/04/20 10:12:23;;;;;;;11.05;5.75;;;;;;;21.90;36.81;97740.19;5030252;28;20028;-79
2021/04/20 10:15:24;;;;;;;8.15;6.40;;;;;;;20.66;38.36;97742.69;5031986;28;20088;-75
2021/04/20 10:18:41;;;;;;;6.45;5.35;;;;;;;22.85;34.26;97741.53;5033148;28;20424;-76
2021/04/20 10:21:19;;;;;;;5.93;4.65;;;;;;;22.55;34.03;97739.91;5012570;28;20058;-83
2021/04/20 10:24:10;;;;;;;6.60;5.45;;;;;;;20.79;35.80;97741.38;5031916;28;20057;-85
2021/04/20 10:26:42;;;;;;;5.93;4.70;;;;;;;20.33;37.02;97728.50;5035024;28;20030;-81
2021/04/20 10:29:45;;;;;;;5.45;4.55;;;;;;;22.16;34.25;97722.66;5056695;28;20037;-86
2021/04/20 10:32:22;;;;;;;5.10;3.92;;;;;;;22.31;32.90;97719.69;5053478;28;20100;-82
2021/04/20 10:34:53;;;;;;;4.80;3.60;;;;;;;21.52;34.40;97721.66;5034603;28;20021;-81
2021/04/20 10:37:20;;;;;;;4.97;4.00;;;;;;;21.23;34.58;97705.66;5034872;28;20478;-84
2021/04/20 10:39:49;;;;;;;4.82;3.78;;;;;;;22.53;31.80;97714.38;5035862;28;20040;-82
2021/04/20 10:42:15;;;;;;;4.15;3.45;;;;;;;22.54;31.26;97710.41;5034655;28;20052;-78
2021/04/20 10:44:47;;;;;;;5.60;4.47;;;;;;;23.05;30.66;97705.88;5035517;28;20034;-81
2021/04/20 10:47:18;;;;;;;5.25;3.83;;;;;;;22.53;32.00;97698.47;5035446;28;20021;-82
2021/04/20 10:49:51;;;;;;;5.55;3.17;;;;;;;21.39;32.73;97700.78;5033248;28;20123;-80
2021/04/20 10:52:19;;;;;;;4.90;3.75;;;;;;;18.99;37.24;97698.28;5034376;28;20037;-79
2021/04/20 10:54:46;;;;;;;5.13;4.18;;;;;;;17.79;40.86;97681.81;5036110;28;20044;-90
2021/04/20 10:57:12;;;;;;;6.32;4.55;;;;;;;17.34;42.11;97681.09;5039245;28;20076;-83
2021/04/20 10:59:50;;;;;;;10.45;4.88;;;;;;;17.15;42.85;97681.69;5034548;28;20371;-74
2021/04/20 11:02:22;;;;;;;8.65;5.80;;;;;;;17.09;43.88;97677.53;5031778;28;20033;-74
2021/04/20 11:04:53;;;;;;;5.57;4.65;;;;;;;15.74;46.28;97687.59;5032126;28;20063;-74
2021/04/20 11:07:21;;;;;;;5.35;4.18;;;;;;;15.84;46.82;97678.94;5032812;28;20477;-73
2021/04/20 11:10:06;;;;;;;6.72;4.53;;;;;;;16.23;46.10;97683.13;5033169;28;20088;-74
2021/04/20 11:12:32;;;;;;;6.10;4.72;;;;;;;15.85;46.75;97681.34;5033266;28;20082;-73
2021/04/20 11:14:59;;;;;;;6.10;4.10;;;;;;;15.98;46.26;97674.75;5033258;28;20021;-73
2021/04/20 11:17:39;;;;;;;5.63;4.43;;;;;;;15.60;48.28;97668.53;5032892;28;20024;-73
2021/04/20 11:20:14;;;;;;;5.43;4.38;;;;;;;15.90;46.97;97678.41;5031270;28;20045;-73
2021/04/20 11:23:01;;;;;;;7.28;5.22;;;;;;;16.04;47.58;97673.41;5025505;28;20033;-73
2021/04/20 11:25:32;;;;;;;7.20;3.58;;;;;;;15.42;46.32;97678.84;5025173;28;20037;-72
2021/04/20 11:28:01;;;;;;;5.15;4.13;;;;;;;15.82;47.21;97673.75;5030698;28;20018;-71
2021/04/20 11:30:32;;;;;;;8.52;4.53;;;;;;;15.69;46.23;97672.06;5030212;28;20553;-73
2021/04/20 11:33:04;;;;;;;4.45;3.47;;;;;;;15.83;46.35;97669.03;5030945;28;20022;-73
2021/04/20 11:35:33;;;;;;;4.88;3.92;;;;;;;15.54;46.21;97669.88;5030472;28;20018;-73
2021/04/20 11:38:05;;;;;;;6.25;4.25;;;;;;;15.32;46.66;97661.88;5030341;28;20021;-72
2021/04/20 11:40:37;;;;;;;4.75;3.13;;;;;;;15.13;45.26;97669.78;5026844;28;20053;-73
2021/04/20 11:43:04;;;;;;;4.22;2.83;;;;;;;15.28;44.98;97671.97;5029937;28;20108;-73